Bluefield, West Virginia
Current Conditions -  °F | °C
As of 11:52 AM on Wednesday 22 Oct 2014 (Local Time) from KBLF Reporting Station
Haze Haze  
Wind Chill:   Ceiling: 400
Heat Index:   Visibility: 5mi
Dew Point:   Wind: 5mph
Humidity: 89%   Direction: NA
Pressure: 30.16"   Gusts: NA
Location:  37.27°N, 81.22°W
Report Text: KBLF 221552Z AUTO VRB04KT 5SM BR OVC004 06/04 A3016 RMK AO2 SLP213 T00610044
Loading
Personal Weather Stations






























Interactive Weather Map
Tropical Storm Tracking
New forecast layout! Learn more

10-Day Weather Forecast

Advertisements
Track Severe Weather on mobile